createdAt,value
2022-10-05T00:00:53.429Z,53.18
2022-10-05T00:03:22.659Z,53.04
2022-10-05T00:05:50.026Z,53.20
2022-10-05T00:08:25.410Z,53.35
2022-10-05T00:10:52.712Z,53.09
2022-10-05T00:13:26.046Z,53.42
2022-10-05T00:16:07.807Z,53.45
2022-10-05T00:18:34.606Z,53.18
2022-10-05T00:21:02.064Z,53.40
2022-10-05T00:23:32.316Z,53.46
2022-10-05T00:26:11.893Z,53.27
2022-10-05T00:28:40.608Z,54.08
2022-10-05T00:31:17.290Z,54.18
2022-10-05T00:33:44.149Z,54.69
2022-10-05T00:36:11.113Z,54.76
2022-10-05T00:38:38.216Z,55.35
2022-10-05T00:41:39.353Z,55.58
2022-10-05T00:44:12.076Z,55.32
2022-10-05T00:46:57.237Z,55.20
2022-10-05T00:50:01.885Z,55.18
2022-10-05T00:52:36.960Z,55.30
2022-10-05T00:55:26.648Z,55.19
2022-10-05T00:57:59.373Z,55.29
2022-10-05T01:00:27.935Z,55.42
2022-10-05T01:03:00.553Z,55.35
2022-10-05T01:05:48.781Z,55.12
2022-10-05T01:08:18.414Z,55.57
2022-10-05T01:10:52.715Z,56.02
2022-10-05T01:13:28.682Z,56.49
2022-10-05T01:16:05.005Z,56.08
2022-10-05T01:18:50.645Z,55.88
2022-10-05T01:21:23.058Z,56.14
2022-10-05T01:24:14.342Z,56.08
2022-10-05T01:27:05.331Z,55.67
2022-10-05T01:29:49.767Z,55.30
2022-10-05T01:32:31.819Z,55.77
2022-10-05T01:35:07.774Z,55.80
2022-10-05T01:37:42.231Z,55.77
2022-10-05T01:40:16.138Z,55.50
2022-10-05T01:42:45.758Z,55.08
2022-10-05T01:45:47.627Z,55.28
2022-10-05T01:48:17.341Z,55.07
2022-10-05T01:51:02.630Z,55.47
2022-10-05T01:53:42.865Z,55.50
2022-10-05T01:56:41.612Z,55.70
2022-10-05T01:59:19.010Z,55.46
2022-10-05T02:01:54.990Z,55.70
2022-10-05T02:05:00.886Z,55.93
2022-10-05T02:07:36.167Z,56.38
2022-10-05T02:10:14.911Z,56.71
2022-10-05T02:12:43.143Z,56.86
2022-10-05T02:15:17.982Z,56.80
2022-10-05T02:17:49.242Z,56.54
2022-10-05T02:20:23.733Z,56.44
2022-10-05T02:22:54.832Z,56.47
2022-10-05T02:25:38.932Z,56.96
2022-10-05T02:28:18.777Z,56.80
2022-10-05T02:30:53.074Z,57.14
2022-10-05T02:33:38.574Z,56.84
2022-10-05T02:36:34.721Z,57.01
2022-10-05T02:39:10.395Z,57.33
2022-10-05T02:41:48.202Z,57.09
2022-10-05T02:44:23.793Z,57.19
2022-10-05T02:46:57.430Z,57.27
2022-10-05T02:49:24.611Z,57.92
2022-10-05T02:52:03.349Z,57.72
2022-10-05T02:54:40.248Z,57.67
2022-10-05T02:57:19.009Z,57.50
2022-10-05T03:00:04.684Z,57.20
2022-10-05T03:02:44.342Z,57.49
2022-10-05T03:05:17.428Z,57.63
2022-10-05T03:08:22.428Z,57.40
2022-10-05T03:11:04.744Z,57.23
2022-10-05T03:13:49.809Z,57.45
2022-10-05T03:16:38.528Z,57.90
2022-10-05T03:19:22.441Z,57.80
2022-10-05T03:22:01.060Z,57.18
2022-10-05T03:24:36.767Z,56.85
2022-10-05T03:27:22.891Z,56.89
2022-10-05T03:30:08.138Z,57.03
2022-10-05T03:32:54.801Z,57.10
2022-10-05T03:35:43.016Z,57.47
2022-10-05T03:38:31.330Z,57.39
2022-10-05T03:41:35.215Z,57.38
2022-10-05T03:44:12.644Z,57.15
2022-10-05T03:46:48.945Z,57.21
2022-10-05T03:49:36.060Z,57.08
2022-10-05T03:52:12.849Z,57.06
2022-10-05T03:54:48.759Z,57.02
2022-10-05T03:57:26.705Z,57.56
2022-10-05T04:00:12.962Z,57.12
2022-10-05T04:02:57.528Z,57.10
2022-10-05T04:05:30.034Z,57.66
2022-10-05T04:08:01.780Z,57.92
2022-10-05T04:10:35.694Z,58.32
2022-10-05T04:13:15.693Z,57.94
2022-10-05T04:16:10.129Z,57.96
2022-10-05T04:18:47.785Z,58.21
2022-10-05T04:21:51.755Z,58.41
2022-10-05T04:24:32.535Z,58.26
2022-10-05T04:27:03.350Z,57.85
2022-10-05T04:30:12.674Z,58.24
2022-10-05T04:32:43.387Z,57.88
2022-10-05T04:35:15.871Z,57.66
2022-10-05T04:38:01.149Z,57.95
2022-10-05T04:40:33.885Z,58.11
2022-10-05T04:43:24.342Z,58.70
2022-10-05T04:45:51.101Z,58.30
2022-10-05T04:48:20.718Z,58.47
2022-10-05T04:51:00.263Z,58.09
2022-10-05T04:54:06.356Z,58.27
2022-10-05T04:56:39.963Z,57.91
2022-10-05T04:59:50.946Z,57.96
2022-10-05T05:02:25.320Z,57.74
2022-10-05T05:05:10.702Z,58.01
2022-10-05T05:07:49.321Z,57.83
2022-10-05T05:10:25.007Z,58.04
2022-10-05T05:13:00.665Z,58.21
2022-10-05T05:15:50.475Z,58.40
2022-10-05T05:18:26.637Z,58.64
2022-10-05T05:21:02.463Z,58.86
2022-10-05T05:23:39.642Z,58.64
2022-10-05T05:26:40.213Z,58.67
2022-10-05T05:29:30.990Z,58.73
2022-10-05T05:32:01.134Z,58.86
2022-10-05T05:34:55.897Z,58.69
2022-10-05T05:37:28.470Z,58.50
2022-10-05T05:40:03.915Z,58.62
2022-10-05T05:42:43.503Z,58.63
2022-10-05T05:45:20.466Z,58.76
2022-10-05T05:47:54.011Z,58.55
2022-10-05T05:50:38.811Z,58.81
2022-10-05T05:53:17.237Z,58.44
2022-10-05T05:55:50.706Z,58.90
2022-10-05T05:58:17.421Z,59.13
2022-10-05T06:00:54.412Z,59.19
2022-10-05T06:03:21.187Z,58.85
2022-10-05T06:05:52.910Z,58.79
2022-10-05T06:08:43.523Z,58.44
2022-10-05T06:11:18.267Z,58.15
2022-10-05T06:13:45.530Z,58.68
2022-10-05T06:16:24.766Z,58.81
2022-10-05T06:18:58.918Z,59.24
2022-10-05T06:21:34.733Z,59.84
2022-10-05T06:24:24.611Z,59.95
2022-10-05T06:27:03.197Z,59.84
2022-10-05T06:29:48.169Z,59.74
2022-10-05T06:32:28.948Z,60.22
2022-10-05T06:35:07.990Z,59.87
2022-10-05T06:37:56.382Z,59.97
2022-10-05T06:40:57.940Z,59.85
2022-10-05T06:43:39.865Z,59.96
2022-10-05T06:46:19.716Z,60.17
2022-10-05T06:49:18.774Z,59.95
2022-10-05T06:51:51.318Z,59.84
2022-10-05T06:54:30.173Z,59.76
2022-10-05T06:57:15.817Z,59.73
2022-10-05T06:59:52.078Z,59.93
2022-10-05T07:02:29.776Z,60.19
2022-10-05T07:05:42.736Z,60.19
2022-10-05T07:08:37.793Z,60.28
2022-10-05T07:11:20.909Z,60.37
2022-10-05T07:14:03.707Z,60.19
2022-10-05T07:16:52.078Z,60.36
2022-10-05T07:19:40.618Z,60.29
2022-10-05T07:22:31.786Z,60.19
2022-10-05T07:25:22.042Z,60.36
2022-10-05T07:28:06.035Z,60.40
2022-10-05T07:30:44.585Z,60.14
2022-10-05T07:33:22.183Z,59.72
2022-10-05T07:36:23.326Z,59.84
2022-10-05T07:39:07.966Z,58.93
2022-10-05T07:41:46.153Z,58.51
2022-10-05T07:44:38.326Z,58.42
2022-10-05T07:47:13.448Z,58.31
2022-10-05T07:49:43.445Z,58.26
2022-10-05T07:52:19.378Z,58.24
2022-10-05T07:54:53.277Z,58.05
2022-10-05T07:57:30.184Z,57.46
2022-10-05T08:00:13.841Z,57.51
2022-10-05T08:03:11.670Z,57.12
2022-10-05T08:05:42.619Z,56.56
2022-10-05T08:08:14.418Z,56.62
2022-10-05T08:10:56.189Z,56.54
2022-10-05T08:13:43.615Z,56.13
2022-10-05T08:16:15.147Z,55.60
2022-10-05T08:19:00.029Z,55.26
2022-10-05T08:21:41.560Z,55.01
2022-10-05T08:24:20.499Z,54.54
2022-10-05T08:26:59.925Z,54.50
2022-10-05T08:29:37.841Z,54.16
2022-10-05T08:32:15.633Z,53.49
2022-10-05T08:34:51.466Z,53.39
2022-10-05T08:37:29.390Z,52.62
2022-10-05T08:40:14.798Z,52.36
2022-10-05T08:42:41.525Z,52.24
2022-10-05T08:45:54.115Z,51.92
2022-10-05T08:48:58.114Z,51.96
2022-10-05T08:51:27.542Z,51.14
2022-10-05T08:54:09.294Z,50.66
2022-10-05T08:56:53.780Z,50.15
2022-10-05T08:59:57.756Z,49.29
2022-10-05T09:02:52.869Z,49.09
2022-10-05T09:05:38.106Z,48.27
2022-10-05T09:08:23.666Z,47.28
2022-10-05T09:11:03.918Z,47.16
2022-10-05T09:13:31.641Z,45.86
2022-10-05T09:16:32.615Z,45.29
2022-10-05T09:19:02.514Z,44.78
2022-10-05T09:21:41.862Z,43.91
2022-10-05T09:24:14.793Z,43.30
2022-10-05T09:26:42.982Z,42.03
2022-10-05T09:29:57.369Z,41.52
2022-10-05T09:32:44.596Z,40.74
2022-10-05T09:35:21.584Z,40.34
2022-10-05T09:37:48.217Z,39.75
2022-10-05T09:40:24.031Z,39.32
2022-10-05T09:43:20.472Z,39.03
2022-10-05T09:45:48.980Z,38.36
2022-10-05T09:48:45.487Z,38.10
2022-10-05T09:51:36.767Z,37.91
2022-10-05T09:54:21.543Z,37.45
2022-10-05T09:57:15.112Z,37.28
2022-10-05T10:00:21.206Z,37.31
2022-10-05T10:03:04.976Z,37.19
2022-10-05T10:05:34.809Z,36.18
2022-10-05T10:08:23.570Z,35.62
2022-10-05T10:11:02.330Z,35.81
2022-10-05T10:13:41.166Z,35.16
2022-10-05T10:16:27.017Z,34.97
2022-10-05T10:19:01.176Z,34.42
2022-10-05T10:22:00.295Z,34.21
2022-10-05T10:24:52.057Z,33.63
2022-10-05T10:27:41.959Z,32.93
2022-10-05T10:30:47.569Z,32.56
2022-10-05T10:33:16.869Z,31.92
2022-10-05T10:36:07.009Z,31.72
2022-10-05T10:39:07.000Z,31.53
2022-10-05T10:42:14.118Z,31.27
2022-10-05T10:44:59.091Z,30.48
2022-10-05T10:47:44.433Z,29.93
2022-10-05T10:50:28.377Z,29.96
2022-10-05T10:54:02.716Z,30.03
2022-10-05T10:56:47.723Z,29.63
2022-10-05T10:59:46.836Z,28.92
2022-10-05T11:02:42.469Z,28.55
2022-10-05T11:05:38.215Z,27.87
2022-10-05T11:08:22.899Z,26.85
2022-10-05T11:11:22.836Z,25.96
2022-10-05T11:14:16.642Z,26.80
2022-10-05T11:17:17.163Z,26.76
2022-10-05T11:20:05.742Z,26.19
2022-10-05T11:22:42.428Z,26.32
2022-10-05T11:25:33.932Z,26.74
2022-10-05T11:28:40.194Z,25.94
2022-10-05T11:31:12.895Z,25.83
2022-10-05T11:33:43.103Z,25.42
2022-10-05T11:36:37.952Z,25.49
2022-10-05T11:39:23.517Z,25.60
2022-10-05T11:42:08.046Z,25.92
2022-10-05T11:45:00.789Z,26.00
2022-10-05T11:47:39.634Z,25.75
2022-10-05T11:50:32.781Z,25.55
2022-10-05T11:53:23.161Z,25.21
2022-10-05T11:56:00.413Z,25.92
2022-10-05T11:58:33.809Z,25.25
2022-10-05T12:01:34.799Z,26.04
2022-10-05T12:04:27.768Z,25.98
2022-10-05T12:07:08.129Z,25.48
2022-10-05T12:10:02.857Z,25.15
2022-10-05T12:12:37.164Z,24.52
2022-10-05T12:15:10.390Z,24.46
2022-10-05T12:17:48.831Z,24.27
2022-10-05T12:20:40.318Z,24.30
2022-10-05T12:23:25.059Z,23.77
2022-10-05T12:26:02.200Z,23.44
2022-10-05T12:28:49.950Z,23.27
2022-10-05T12:31:43.780Z,23.07
2022-10-05T12:34:16.894Z,22.68
2022-10-05T12:37:16.326Z,22.85
2022-10-05T12:40:12.502Z,22.27
2022-10-05T12:42:52.037Z,21.52
2022-10-05T12:45:36.996Z,21.15
2022-10-05T12:48:19.207Z,20.93
2022-10-05T12:50:51.485Z,20.30
2022-10-05T12:53:33.376Z,19.89
2022-10-05T12:56:30.743Z,19.79
2022-10-05T12:59:42.695Z,19.33
2022-10-05T13:02:25.093Z,19.73
2022-10-05T13:05:11.996Z,19.20
2022-10-05T13:07:48.698Z,19.12
2022-10-05T13:10:24.791Z,20.64
2022-10-05T13:13:12.729Z,22.66
2022-10-05T13:15:56.565Z,24.48
2022-10-05T13:18:29.492Z,26.01
2022-10-05T13:21:12.841Z,27.02
2022-10-05T13:23:53.750Z,28.04
2022-10-05T13:26:34.165Z,29.64
2022-10-05T13:29:22.502Z,30.24
2022-10-05T13:31:55.754Z,31.02
2022-10-05T13:34:38.656Z,32.06
2022-10-05T13:37:31.857Z,32.20
2022-10-05T13:40:02.025Z,33.02
2022-10-05T13:42:41.287Z,33.70
2022-10-05T13:45:26.579Z,33.53
2022-10-05T13:48:27.474Z,34.14
2022-10-05T13:51:05.291Z,34.72
2022-10-05T13:53:42.677Z,35.47
2022-10-05T13:56:33.244Z,35.65
2022-10-05T13:59:33.136Z,35.73
2022-10-05T14:02:07.812Z,36.11
2022-10-05T14:04:51.195Z,36.88
2022-10-05T14:07:31.702Z,37.40
2022-10-05T14:10:02.227Z,37.88
2022-10-05T14:12:29.040Z,38.51
2022-10-05T14:15:12.897Z,38.31
2022-10-05T14:17:42.464Z,38.63
2022-10-05T14:20:27.481Z,39.35
2022-10-05T14:23:01.915Z,39.33
2022-10-05T14:25:31.052Z,39.61
2022-10-05T14:28:00.633Z,40.14
2022-10-05T14:30:30.122Z,39.74
2022-10-05T14:33:05.690Z,39.50
2022-10-05T14:35:56.057Z,40.68
2022-10-05T14:38:23.053Z,40.66
2022-10-05T14:41:13.406Z,41.58
2022-10-05T14:44:07.330Z,41.48
2022-10-05T14:46:36.682Z,41.79
2022-10-05T14:49:21.335Z,41.68
2022-10-05T14:51:49.676Z,41.83
2022-10-05T14:54:46.576Z,42.26
2022-10-05T14:57:40.830Z,42.32
2022-10-05T15:00:18.905Z,42.60
2022-10-05T15:02:45.610Z,43.14
2022-10-05T15:05:53.992Z,42.71
2022-10-05T15:08:53.710Z,42.74
2022-10-05T15:11:34.793Z,43.40
2022-10-05T15:14:06.406Z,43.29
2022-10-05T15:16:38.486Z,43.71
2022-10-05T15:19:24.418Z,43.83
2022-10-05T15:22:10.640Z,43.55
2022-10-05T15:24:56.055Z,43.89
2022-10-05T15:27:35.708Z,44.08
2022-10-05T15:30:12.655Z,43.81
2022-10-05T15:32:51.234Z,44.41
2022-10-05T15:36:00.770Z,44.22
2022-10-05T15:38:29.500Z,44.31
2022-10-05T15:41:18.335Z,44.26
2022-10-05T15:43:55.379Z,44.77
2022-10-05T15:46:47.165Z,45.29
2022-10-05T15:49:16.704Z,45.52
2022-10-05T15:52:07.663Z,45.18
2022-10-05T15:55:01.963Z,45.71
2022-10-05T15:57:48.731Z,45.78
2022-10-05T16:00:23.600Z,45.86
2022-10-05T16:03:12.281Z,45.71
2022-10-05T16:06:08.906Z,46.09
2022-10-05T16:08:55.924Z,46.08
2022-10-05T16:11:40.922Z,45.79
2022-10-05T16:14:10.425Z,46.30
2022-10-05T16:16:42.424Z,45.98
2022-10-05T16:19:12.665Z,46.39
2022-10-05T16:21:44.291Z,46.31
2022-10-05T16:24:35.678Z,46.77
2022-10-05T16:27:16.342Z,46.54
2022-10-05T16:30:11.863Z,46.42
2022-10-05T16:32:46.498Z,46.51
2022-10-05T16:35:25.331Z,46.65
2022-10-05T16:38:05.753Z,46.69
2022-10-05T16:41:01.073Z,46.44
2022-10-05T16:43:34.734Z,46.78
2022-10-05T16:46:22.166Z,47.08
2022-10-05T16:49:01.409Z,47.22
2022-10-05T16:51:28.143Z,47.59
2022-10-05T16:54:18.542Z,47.80
2022-10-05T16:56:52.127Z,47.30
2022-10-05T16:59:46.984Z,47.88
2022-10-05T17:02:35.442Z,47.97
2022-10-05T17:05:40.102Z,48.06
2022-10-05T17:08:27.908Z,47.84
2022-10-05T17:11:19.955Z,48.50
2022-10-05T17:14:08.265Z,48.25
2022-10-05T17:17:05.486Z,48.29
2022-10-05T17:20:01.250Z,48.85
2022-10-05T17:22:42.787Z,48.86
2022-10-05T17:25:27.856Z,49.04
2022-10-05T17:28:33.402Z,49.18
2022-10-05T17:31:15.223Z,49.80
2022-10-05T17:34:00.397Z,49.63
2022-10-05T17:36:49.234Z,50.13
2022-10-05T17:39:22.113Z,50.47
2022-10-05T17:41:49.401Z,50.62
2022-10-05T17:44:19.630Z,51.00
2022-10-05T17:47:01.097Z,51.49
2022-10-05T17:50:15.426Z,51.25
2022-10-05T17:53:03.062Z,51.55
2022-10-05T17:55:45.023Z,51.80
2022-10-05T17:58:24.133Z,52.16
2022-10-05T18:00:57.167Z,52.15
2022-10-05T18:04:11.587Z,52.10
2022-10-05T18:07:27.867Z,52.27
2022-10-05T18:09:59.257Z,52.62
2022-10-05T18:12:41.677Z,52.81
2022-10-05T18:15:09.472Z,52.97
2022-10-05T18:18:25.756Z,52.84
2022-10-05T18:21:14.141Z,53.12
2022-10-05T18:24:23.289Z,53.23
2022-10-05T18:27:05.289Z,53.65
2022-10-05T18:30:05.532Z,53.73
2022-10-05T18:32:38.321Z,54.08
2022-10-05T18:35:32.720Z,54.25
2022-10-05T18:38:19.621Z,54.36
2022-10-05T18:40:55.833Z,55.01
2022-10-05T18:43:34.836Z,55.21
2022-10-05T18:46:27.414Z,55.17
2022-10-05T18:49:08.127Z,55.31
2022-10-05T18:51:51.008Z,55.48
2022-10-05T18:54:57.541Z,55.44
2022-10-05T18:57:33.102Z,55.86
2022-10-05T19:00:08.038Z,55.79
2022-10-05T19:02:40.510Z,55.85
2022-10-05T19:05:49.113Z,55.67
2022-10-05T19:08:53.621Z,55.54
2022-10-05T19:11:36.605Z,55.79
2022-10-05T19:14:21.843Z,56.02
2022-10-05T19:17:01.588Z,55.91
2022-10-05T19:19:49.273Z,56.11
2022-10-05T19:22:26.584Z,56.23
2022-10-05T19:25:17.494Z,56.18
2022-10-05T19:28:14.248Z,55.98
2022-10-05T19:30:53.758Z,56.17
2022-10-05T19:33:37.876Z,56.28
2022-10-05T19:36:17.066Z,56.26
2022-10-05T19:39:06.649Z,56.28
2022-10-05T19:42:10.602Z,56.34
2022-10-05T19:44:57.592Z,56.37
2022-10-05T19:47:45.512Z,56.59
2022-10-05T19:50:27.882Z,56.52
2022-10-05T19:53:11.392Z,56.71
2022-10-05T19:55:41.920Z,56.99
2022-10-05T19:58:40.092Z,56.82
2022-10-05T20:01:11.508Z,56.92
2022-10-05T20:03:38.722Z,57.09
2022-10-05T20:06:08.171Z,57.06
2022-10-05T20:08:47.122Z,57.05
2022-10-05T20:11:17.516Z,57.21
2022-10-05T20:14:09.679Z,56.91
2022-10-05T20:16:55.382Z,57.38
2022-10-05T20:20:06.748Z,57.16
2022-10-05T20:22:36.118Z,57.23
2022-10-05T20:25:06.507Z,57.38
2022-10-05T20:27:42.245Z,57.61
2022-10-05T20:30:11.653Z,57.82
2022-10-05T20:32:38.676Z,57.58
2022-10-05T20:35:07.073Z,57.54
2022-10-05T20:37:34.217Z,57.89
2022-10-05T20:40:00.941Z,58.17
2022-10-05T20:42:27.653Z,58.01
2022-10-05T20:44:57.010Z,57.91
2022-10-05T20:47:24.797Z,57.75
2022-10-05T20:49:53.477Z,57.89
2022-10-05T20:52:21.277Z,57.90
2022-10-05T20:54:48.174Z,58.14
2022-10-05T20:57:14.981Z,58.29
2022-10-05T20:59:41.864Z,58.31
2022-10-05T21:02:08.741Z,58.31
2022-10-05T21:04:40.817Z,58.21
2022-10-05T21:07:08.532Z,58.07
2022-10-05T21:09:38.161Z,58.38
2022-10-05T21:12:05.000Z,58.27
2022-10-05T21:14:34.658Z,58.09
2022-10-05T21:17:05.197Z,58.11
2022-10-05T21:19:38.470Z,58.14
2022-10-05T21:22:10.013Z,58.15
2022-10-05T21:24:38.929Z,58.02
2022-10-05T21:27:06.269Z,58.11
2022-10-05T21:29:34.442Z,58.04
2022-10-05T21:32:01.389Z,58.03
2022-10-05T21:34:28.838Z,58.25
2022-10-05T21:36:55.678Z,58.31
2022-10-05T21:39:22.562Z,58.71
2022-10-05T21:41:49.875Z,59.02
2022-10-05T21:44:16.848Z,58.62
2022-10-05T21:46:43.920Z,58.82
2022-10-05T21:49:11.027Z,59.01
2022-10-05T21:51:38.787Z,59.25
2022-10-05T21:54:24.515Z,59.37
2022-10-05T21:56:54.844Z,59.31
2022-10-05T21:59:27.204Z,59.29
2022-10-05T22:01:54.105Z,59.60
2022-10-05T22:04:20.983Z,59.44
2022-10-05T22:06:49.224Z,59.38
2022-10-05T22:09:15.949Z,59.24
2022-10-05T22:11:42.693Z,59.39
2022-10-05T22:14:09.630Z,59.74
2022-10-05T22:16:38.952Z,59.43
2022-10-05T22:19:10.968Z,59.31
2022-10-05T22:21:41.675Z,58.94
2022-10-05T22:24:11.733Z,58.81
2022-10-05T22:26:39.110Z,58.46
2022-10-05T22:29:05.904Z,58.11
2022-10-05T22:31:32.901Z,58.33
2022-10-05T22:33:59.643Z,58.48
2022-10-05T22:36:26.923Z,58.72
2022-10-05T22:38:53.753Z,58.75
2022-10-05T22:41:20.993Z,58.43
2022-10-05T22:43:50.403Z,58.48
2022-10-05T22:46:17.562Z,58.48
2022-10-05T22:48:44.366Z,58.84
2022-10-05T22:51:11.111Z,58.92
2022-10-05T22:53:38.287Z,58.91
2022-10-05T22:56:11.054Z,59.01
2022-10-05T22:58:38.302Z,59.09
2022-10-05T23:01:08.109Z,59.42
2022-10-05T23:03:35.503Z,59.75
2022-10-05T23:06:05.295Z,59.68
2022-10-05T23:08:33.380Z,60.15
2022-10-05T23:11:07.255Z,60.27
2022-10-05T23:13:34.416Z,60.21
2022-10-05T23:16:14.256Z,60.20
2022-10-05T23:18:42.562Z,60.29
2022-10-05T23:21:10.537Z,60.13
2022-10-05T23:23:43.633Z,60.34
2022-10-05T23:26:12.149Z,60.31
2022-10-05T23:28:40.617Z,60.56
2022-10-05T23:31:08.975Z,60.65
2022-10-05T23:33:35.857Z,61.15
2022-10-05T23:36:06.348Z,60.59
2022-10-05T23:38:34.475Z,60.76
2022-10-05T23:41:02.631Z,60.25
2022-10-05T23:43:29.974Z,60.41
2022-10-05T23:45:56.932Z,60.39
2022-10-05T23:48:23.673Z,60.51
2022-10-05T23:50:50.610Z,60.14
2022-10-05T23:53:18.011Z,59.82
2022-10-05T23:55:45.236Z,60.10
2022-10-05T23:58:12.004Z,60.06
